sensor_id;sensor_type;location;lat;lon;timestamp;pressure;altitude;pressure_sealevel;temperature;humidity
4745;BME280;2386;42.138;24.746;2022-09-21T00:03:43;99667.56;;;15.57;56.57
4745;BME280;2386;42.138;24.746;2022-09-21T00:06:11;99648.97;;;15.59;56.86
4745;BME280;2386;42.138;24.746;2022-09-21T00:08:37;99662.19;;;15.77;57.20
4745;BME280;2386;42.138;24.746;2022-09-21T00:11:03;99671.75;;;15.75;56.40
4745;BME280;2386;42.138;24.746;2022-09-21T00:13:32;99666.41;;;15.53;57.67
4745;BME280;2386;42.138;24.746;2022-09-21T00:15:58;99659.19;;;15.42;58.72
4745;BME280;2386;42.138;24.746;2022-09-21T00:18:24;99657.84;;;15.44;58.26
4745;BME280;2386;42.138;24.746;2022-09-21T00:20:50;99669.09;;;15.48;58.59
4745;BME280;2386;42.138;24.746;2022-09-21T00:23:19;99659.59;;;15.56;58.71
4745;BME280;2386;42.138;24.746;2022-09-21T00:25:44;99665.88;;;15.56;58.84
4745;BME280;2386;42.138;24.746;2022-09-21T00:28:10;99667.69;;;15.45;59.15
4745;BME280;2386;42.138;24.746;2022-09-21T00:30:37;99673.28;;;15.61;58.85
4745;BME280;2386;42.138;24.746;2022-09-21T00:33:03;99674.66;;;15.58;59.33
4745;BME280;2386;42.138;24.746;2022-09-21T00:35:28;99668.56;;;15.51;59.53
4745;BME280;2386;42.138;24.746;2022-09-21T00:37:54;99673.72;;;15.48;59.95
4745;BME280;2386;42.138;24.746;2022-09-21T00:40:19;99673.50;;;15.54;59.94
4745;BME280;2386;42.138;24.746;2022-09-21T00:42:45;99667.81;;;15.61;59.46
4745;BME280;2386;42.138;24.746;2022-09-21T00:45:11;99662.66;;;15.59;58.28
4745;BME280;2386;42.138;24.746;2022-09-21T00:47:47;99655.16;;;15.50;59.36
4745;BME280;2386;42.138;24.746;2022-09-21T00:50:18;99668.19;;;15.37;59.08
4745;BME280;2386;42.138;24.746;2022-09-21T00:52:55;99658.97;;;15.49;58.78
4745;BME280;2386;42.138;24.746;2022-09-21T00:55:26;99657.59;;;15.46;58.45
4745;BME280;2386;42.138;24.746;2022-09-21T00:57:58;99662.28;;;15.51;57.94
4745;BME280;2386;42.138;24.746;2022-09-21T01:00:26;99666.47;;;15.58;56.60
4745;BME280;2386;42.138;24.746;2022-09-21T01:02:51;99662.66;;;15.59;58.19
4745;BME280;2386;42.138;24.746;2022-09-21T01:05:19;99651.41;;;15.61;57.88
4745;BME280;2386;42.138;24.746;2022-09-21T01:07:46;99660.94;;;15.53;56.93
4745;BME280;2386;42.138;24.746;2022-09-21T01:10:17;99659.28;;;15.52;57.06
4745;BME280;2386;42.138;24.746;2022-09-21T01:17:45;99649.88;;;15.38;57.66
4745;BME280;2386;42.138;24.746;2022-09-21T01:37:02;99630.75;;;15.38;58.26
4745;BME280;2386;42.138;24.746;2022-09-21T01:39:33;99628.00;;;15.38;57.89
4745;BME280;2386;42.138;24.746;2022-09-21T01:42:04;99633.22;;;15.39;58.90
4745;BME280;2386;42.138;24.746;2022-09-21T01:44:32;99608.78;;;15.28;58.28
4745;BME280;2386;42.138;24.746;2022-09-21T01:47:01;99617.28;;;15.31;57.75
4745;BME280;2386;42.138;24.746;2022-09-21T01:49:37;99622.41;;;15.23;58.84
4745;BME280;2386;42.138;24.746;2022-09-21T01:52:19;99616.97;;;15.23;59.02
4745;BME280;2386;42.138;24.746;2022-09-21T01:54:55;99621.81;;;15.16;57.93
4745;BME280;2386;42.138;24.746;2022-09-21T01:57:27;99629.50;;;15.19;58.11
4745;BME280;2386;42.138;24.746;2022-09-21T01:59:56;99620.47;;;15.18;57.95
4745;BME280;2386;42.138;24.746;2022-09-21T02:02:50;99631.97;;;15.20;58.73
4745;BME280;2386;42.138;24.746;2022-09-21T02:05:18;99625.72;;;15.25;58.65
4745;BME280;2386;42.138;24.746;2022-09-21T02:07:46;99614.03;;;15.34;57.76
4745;BME280;2386;42.138;24.746;2022-09-21T02:10:35;99636.13;;;15.28;58.71
4745;BME280;2386;42.138;24.746;2022-09-21T02:13:05;99617.78;;;15.23;58.12
4745;BME280;2386;42.138;24.746;2022-09-21T02:29:40;99634.84;;;15.40;58.83
4745;BME280;2386;42.138;24.746;2022-09-21T02:39:58;99632.91;;;15.36;59.10
4745;BME280;2386;42.138;24.746;2022-09-21T02:42:36;99626.31;;;15.32;59.55
4745;BME280;2386;42.138;24.746;2022-09-21T02:47:51;99627.97;;;15.33;58.13
4745;BME280;2386;42.138;24.746;2022-09-21T02:50:23;99638.63;;;15.34;58.38
4745;BME280;2386;42.138;24.746;2022-09-21T02:52:51;99629.00;;;15.27;58.81
4745;BME280;2386;42.138;24.746;2022-09-21T02:55:18;99629.09;;;15.37;58.03
4745;BME280;2386;42.138;24.746;2022-09-21T02:57:45;99640.38;;;15.45;57.75
4745;BME280;2386;42.138;24.746;2022-09-21T03:00:15;99646.66;;;15.46;58.16
4745;BME280;2386;42.138;24.746;2022-09-21T03:02:43;99637.25;;;15.32;58.95
4745;BME280;2386;42.138;24.746;2022-09-21T03:05:10;99638.94;;;15.38;58.62
4745;BME280;2386;42.138;24.746;2022-09-21T03:07:36;99640.31;;;15.40;59.16
4745;BME280;2386;42.138;24.746;2022-09-21T03:10:03;99647.19;;;15.43;59.45
4745;BME280;2386;42.138;24.746;2022-09-21T03:12:29;99640.63;;;15.44;59.19
4745;BME280;2386;42.138;24.746;2022-09-21T03:14:56;99641.63;;;15.33;60.39
4745;BME280;2386;42.138;24.746;2022-09-21T03:17:22;99638.34;;;15.31;59.70
4745;BME280;2386;42.138;24.746;2022-09-21T03:19:47;99642.69;;;15.27;60.00
4745;BME280;2386;42.138;24.746;2022-09-21T03:22:13;99635.03;;;15.29;59.72
4745;BME280;2386;42.138;24.746;2022-09-21T03:24:38;99636.09;;;15.23;60.72
4745;BME280;2386;42.138;24.746;2022-09-21T03:27:10;99642.13;;;15.25;60.67
4745;BME280;2386;42.138;24.746;2022-09-21T03:29:36;99643.41;;;15.17;62.04
4745;BME280;2386;42.138;24.746;2022-09-21T03:32:01;99646.56;;;15.36;61.13
4745;BME280;2386;42.138;24.746;2022-09-21T03:34:27;99652.81;;;15.31;61.38
4745;BME280;2386;42.138;24.746;2022-09-21T03:36:53;99649.31;;;15.36;62.56
4745;BME280;2386;42.138;24.746;2022-09-21T03:39:18;99660.13;;;15.21;62.59
4745;BME280;2386;42.138;24.746;2022-09-21T03:41:43;99656.19;;;15.11;63.80
4745;BME280;2386;42.138;24.746;2022-09-21T03:44:09;99652.34;;;15.07;63.60
4745;BME280;2386;42.138;24.746;2022-09-21T03:46:34;99646.84;;;15.02;63.71
4745;BME280;2386;42.138;24.746;2022-09-21T03:49:00;99659.41;;;15.03;64.92
4745;BME280;2386;42.138;24.746;2022-09-21T03:51:27;99654.09;;;14.92;65.37
4745;BME280;2386;42.138;24.746;2022-09-21T03:53:54;99647.91;;;15.01;64.96
4745;BME280;2386;42.138;24.746;2022-09-21T03:56:19;99657.81;;;15.07;65.83
4745;BME280;2386;42.138;24.746;2022-09-21T03:58:45;99664.81;;;14.98;65.82
4745;BME280;2386;42.138;24.746;2022-09-21T04:01:10;99654.97;;;14.97;66.45
4745;BME280;2386;42.138;24.746;2022-09-21T04:03:36;99665.91;;;14.97;66.37
4745;BME280;2386;42.138;24.746;2022-09-21T04:06:09;99653.16;;;15.08;66.20
4745;BME280;2386;42.138;24.746;2022-09-21T04:08:34;99650.19;;;15.09;65.88
4745;BME280;2386;42.138;24.746;2022-09-21T04:11:00;99657.72;;;14.97;66.66
4745;BME280;2386;42.138;24.746;2022-09-21T04:13:26;99654.09;;;14.92;65.95
4745;BME280;2386;42.138;24.746;2022-09-21T04:15:52;99655.44;;;14.89;66.17
4745;BME280;2386;42.138;24.746;2022-09-21T04:18:17;99670.78;;;14.95;66.30
4745;BME280;2386;42.138;24.746;2022-09-21T04:20:42;99668.59;;;14.92;66.53
4745;BME280;2386;42.138;24.746;2022-09-21T04:23:08;99663.00;;;14.77;66.13
4745;BME280;2386;42.138;24.746;2022-09-21T04:25:34;99668.63;;;14.97;65.71
4745;BME280;2386;42.138;24.746;2022-09-21T04:27:59;99672.66;;;14.90;66.50
4745;BME280;2386;42.138;24.746;2022-09-21T04:30:25;99669.16;;;14.94;64.79
4745;BME280;2386;42.138;24.746;2022-09-21T04:32:50;99660.78;;;15.06;66.03
4745;BME280;2386;42.138;24.746;2022-09-21T04:35:16;99670.38;;;15.08;64.44
4745;BME280;2386;42.138;24.746;2022-09-21T04:37:41;99666.88;;;15.13;63.66
4745;BME280;2386;42.138;24.746;2022-09-21T04:40:07;99670.16;;;15.15;63.29
4745;BME280;2386;42.138;24.746;2022-09-21T04:42:33;99680.38;;;15.25;62.99
4745;BME280;2386;42.138;24.746;2022-09-21T04:44:59;99668.91;;;15.28;63.87
4745;BME280;2386;42.138;24.746;2022-09-21T04:47:24;99673.00;;;15.25;62.62
4745;BME280;2386;42.138;24.746;2022-09-21T04:49:50;99665.19;;;15.39;63.76
4745;BME280;2386;42.138;24.746;2022-09-21T04:52:26;99679.19;;;15.48;62.71
4745;BME280;2386;42.138;24.746;2022-09-21T04:54:53;99667.13;;;15.43;62.80
4745;BME280;2386;42.138;24.746;2022-09-21T04:57:18;99673.25;;;15.56;62.32
4745;BME280;2386;42.138;24.746;2022-09-21T04:59:44;99673.38;;;15.39;62.80
4745;BME280;2386;42.138;24.746;2022-09-21T05:02:09;99675.59;;;15.42;62.95
4745;BME280;2386;42.138;24.746;2022-09-21T05:04:34;99671.78;;;15.43;63.40
4745;BME280;2386;42.138;24.746;2022-09-21T05:07:00;99664.16;;;15.45;62.77
4745;BME280;2386;42.138;24.746;2022-09-21T05:09:25;99674.56;;;15.48;63.08
4745;BME280;2386;42.138;24.746;2022-09-21T05:12:09;99673.44;;;15.44;64.65
4745;BME280;2386;42.138;24.746;2022-09-21T05:14:35;99681.69;;;15.49;64.35
4745;BME280;2386;42.138;24.746;2022-09-21T05:17:00;99675.34;;;15.43;64.84
4745;BME280;2386;42.138;24.746;2022-09-21T05:19:26;99677.81;;;15.45;64.70
4745;BME280;2386;42.138;24.746;2022-09-21T05:21:51;99672.38;;;15.50;63.93
4745;BME280;2386;42.138;24.746;2022-09-21T05:24:16;99676.25;;;15.54;64.61
4745;BME280;2386;42.138;24.746;2022-09-21T05:26:42;99658.75;;;15.55;64.42
4745;BME280;2386;42.138;24.746;2022-09-21T05:29:07;99669.34;;;15.47;64.79
4745;BME280;2386;42.138;24.746;2022-09-21T05:31:46;99670.22;;;15.52;63.56
4745;BME280;2386;42.138;24.746;2022-09-21T05:36:56;99671.94;;;15.63;64.32
4745;BME280;2386;42.138;24.746;2022-09-21T05:39:23;99668.69;;;15.66;63.64
4745;BME280;2386;42.138;24.746;2022-09-21T05:41:50;99660.78;;;15.70;64.32
4745;BME280;2386;42.138;24.746;2022-09-21T05:44:16;99673.44;;;15.81;63.63
4745;BME280;2386;42.138;24.746;2022-09-21T05:46:53;99675.31;;;15.75;63.54
4745;BME280;2386;42.138;24.746;2022-09-21T05:53:10;99678.50;;;15.57;65.35
4745;BME280;2386;42.138;24.746;2022-09-21T05:55:42;99677.94;;;15.60;65.91
4745;BME280;2386;42.138;24.746;2022-09-21T06:01:33;99688.88;;;15.60;66.15
4745;BME280;2386;42.138;24.746;2022-09-21T06:04:04;99678.78;;;15.66;65.99
4745;BME280;2386;42.138;24.746;2022-09-21T06:06:33;99677.72;;;15.67;66.22
4745;BME280;2386;42.138;24.746;2022-09-21T06:08:59;99685.59;;;15.58;66.24
4745;BME280;2386;42.138;24.746;2022-09-21T06:11:24;99676.59;;;15.63;66.04
4745;BME280;2386;42.138;24.746;2022-09-21T06:13:50;99680.91;;;15.54;67.08
4745;BME280;2386;42.138;24.746;2022-09-21T06:16:18;99692.25;;;15.72;66.76
4745;BME280;2386;42.138;24.746;2022-09-21T06:18:43;99685.94;;;15.72;66.10
4745;BME280;2386;42.138;24.746;2022-09-21T06:21:09;99689.03;;;15.81;66.74
4745;BME280;2386;42.138;24.746;2022-09-21T06:23:38;99694.53;;;15.86;64.29
4745;BME280;2386;42.138;24.746;2022-09-21T06:26:04;99690.44;;;15.88;63.16
4745;BME280;2386;42.138;24.746;2022-09-21T06:28:29;99694.66;;;16.06;61.87
4745;BME280;2386;42.138;24.746;2022-09-21T06:30:56;99693.09;;;16.20;60.36
4745;BME280;2386;42.138;24.746;2022-09-21T06:33:22;99696.41;;;16.27;60.70
4745;BME280;2386;42.138;24.746;2022-09-21T06:35:55;99693.38;;;16.19;61.16
4745;BME280;2386;42.138;24.746;2022-09-21T06:38:22;99690.09;;;16.22;60.33
4745;BME280;2386;42.138;24.746;2022-09-21T06:40:48;99688.69;;;16.14;60.64
4745;BME280;2386;42.138;24.746;2022-09-21T06:43:16;99684.84;;;16.10;60.44
4745;BME280;2386;42.138;24.746;2022-09-21T06:45:41;99691.16;;;16.16;60.73
4745;BME280;2386;42.138;24.746;2022-09-21T06:48:07;99699.13;;;16.22;60.83
4745;BME280;2386;42.138;24.746;2022-09-21T06:50:32;99694.47;;;16.23;60.99
4745;BME280;2386;42.138;24.746;2022-09-21T06:53:02;99704.84;;;16.16;60.76
4745;BME280;2386;42.138;24.746;2022-09-21T06:55:28;99692.25;;;16.15;60.19
4745;BME280;2386;42.138;24.746;2022-09-21T06:58:03;99710.84;;;16.13;61.02
4745;BME280;2386;42.138;24.746;2022-09-21T07:00:29;99699.09;;;16.17;60.30
4745;BME280;2386;42.138;24.746;2022-09-21T07:02:55;99699.94;;;16.18;60.44
4745;BME280;2386;42.138;24.746;2022-09-21T07:05:21;99703.56;;;16.38;59.73
4745;BME280;2386;42.138;24.746;2022-09-21T07:07:46;99704.13;;;16.40;59.67
4745;BME280;2386;42.138;24.746;2022-09-21T07:10:12;99698.72;;;16.56;57.98
4745;BME280;2386;42.138;24.746;2022-09-21T07:12:37;99698.53;;;16.72;56.10
4745;BME280;2386;42.138;24.746;2022-09-21T07:15:04;99716.34;;;16.75;56.00
4745;BME280;2386;42.138;24.746;2022-09-21T07:17:31;99694.47;;;16.85;55.84
4745;BME280;2386;42.138;24.746;2022-09-21T07:19:57;99704.91;;;16.98;55.77
4745;BME280;2386;42.138;24.746;2022-09-21T07:22:23;99703.25;;;16.87;55.77
4745;BME280;2386;42.138;24.746;2022-09-21T07:24:49;99700.81;;;17.01;55.92
4745;BME280;2386;42.138;24.746;2022-09-21T07:27:16;99693.13;;;16.98;56.67
4745;BME280;2386;42.138;24.746;2022-09-21T07:29:41;99700.53;;;17.02;56.19
4745;BME280;2386;42.138;24.746;2022-09-21T07:32:07;99688.19;;;17.15;55.72
4745;BME280;2386;42.138;24.746;2022-09-21T07:34:34;99701.38;;;17.38;56.25
4745;BME280;2386;42.138;24.746;2022-09-21T07:37:02;99691.78;;;17.26;54.75
4745;BME280;2386;42.138;24.746;2022-09-21T07:39:28;99693.69;;;17.35;53.61
4745;BME280;2386;42.138;24.746;2022-09-21T07:41:53;99693.16;;;17.44;51.96
4745;BME280;2386;42.138;24.746;2022-09-21T07:44:19;99686.31;;;17.51;50.87
4745;BME280;2386;42.138;24.746;2022-09-21T07:46:50;99686.84;;;17.58;50.88
4745;BME280;2386;42.138;24.746;2022-09-21T07:49:15;99695.38;;;17.67;50.25
4745;BME280;2386;42.138;24.746;2022-09-21T07:51:41;99690.16;;;17.70;50.19
4745;BME280;2386;42.138;24.746;2022-09-21T07:54:08;99694.50;;;17.92;51.21
4745;BME280;2386;42.138;24.746;2022-09-21T07:56:35;99692.25;;;18.14;51.63
4745;BME280;2386;42.138;24.746;2022-09-21T07:59:01;99679.31;;;18.30;51.14
4745;BME280;2386;42.138;24.746;2022-09-21T08:01:37;99697.41;;;18.41;48.94
4745;BME280;2386;42.138;24.746;2022-09-21T08:04:04;99696.56;;;18.41;48.81
4745;BME280;2386;42.138;24.746;2022-09-21T08:06:31;99688.91;;;18.37;48.04
4745;BME280;2386;42.138;24.746;2022-09-21T08:09:02;99683.09;;;18.44;48.22
4745;BME280;2386;42.138;24.746;2022-09-21T08:11:28;99676.22;;;18.47;48.51
4745;BME280;2386;42.138;24.746;2022-09-21T08:13:57;99671.19;;;18.59;49.84
4745;BME280;2386;42.138;24.746;2022-09-21T08:16:24;99678.91;;;18.62;47.42
4745;BME280;2386;42.138;24.746;2022-09-21T08:18:50;99662.63;;;18.76;47.97
4745;BME280;2386;42.138;24.746;2022-09-21T08:21:16;99662.84;;;18.84;46.46
4745;BME280;2386;42.138;24.746;2022-09-21T08:23:42;99653.22;;;18.87;45.57
4745;BME280;2386;42.138;24.746;2022-09-21T08:26:10;99656.75;;;18.92;46.57
4745;BME280;2386;42.138;24.746;2022-09-21T08:28:38;99665.56;;;18.89;44.62
4745;BME280;2386;42.138;24.746;2022-09-21T08:31:06;99655.84;;;19.07;45.20
4745;BME280;2386;42.138;24.746;2022-09-21T08:33:34;99665.41;;;19.15;44.60
4745;BME280;2386;42.138;24.746;2022-09-21T08:36:01;99647.16;;;18.90;43.99
4745;BME280;2386;42.138;24.746;2022-09-21T08:38:31;99657.19;;;19.10;43.48
4745;BME280;2386;42.138;24.746;2022-09-21T08:40:59;99653.59;;;19.14;44.24
4745;BME280;2386;42.138;24.746;2022-09-21T08:43:35;99645.63;;;19.13;44.08
4745;BME280;2386;42.138;24.746;2022-09-21T08:46:09;99644.50;;;19.14;44.64
4745;BME280;2386;42.138;24.746;2022-09-21T08:48:40;99649.16;;;19.18;44.65
4745;BME280;2386;42.138;24.746;2022-09-21T08:51:14;99635.41;;;19.18;43.54
4745;BME280;2386;42.138;24.746;2022-09-21T08:53:44;99625.69;;;19.31;43.99
4745;BME280;2386;42.138;24.746;2022-09-21T08:56:12;99629.09;;;19.47;44.45
4745;BME280;2386;42.138;24.746;2022-09-21T08:58:38;99644.97;;;19.60;43.50
4745;BME280;2386;42.138;24.746;2022-09-21T09:20:35;99612.25;;;19.82;40.82
4745;BME280;2386;42.138;24.746;2022-09-21T09:23:08;99606.09;;;19.66;40.86
4745;BME280;2386;42.138;24.746;2022-09-21T09:25:40;99602.13;;;19.78;41.30
4745;BME280;2386;42.138;24.746;2022-09-21T09:28:19;99596.84;;;19.81;40.80
4745;BME280;2386;42.138;24.746;2022-09-21T09:30:55;99587.94;;;19.89;40.71
4745;BME280;2386;42.138;24.746;2022-09-21T09:33:25;99585.63;;;20.01;41.41
4745;BME280;2386;42.138;24.746;2022-09-21T09:36:02;99590.88;;;19.98;39.60
4745;BME280;2386;42.138;24.746;2022-09-21T09:39:09;99583.03;;;19.86;39.76
4745;BME280;2386;42.138;24.746;2022-09-21T09:53:25;99584.31;;;19.94;39.40
4745;BME280;2386;42.138;24.746;2022-09-21T09:55:52;99585.38;;;19.98;39.54
4745;BME280;2386;42.138;24.746;2022-09-21T10:01:42;99580.19;;;20.15;39.84
4745;BME280;2386;42.138;24.746;2022-09-21T10:23:36;99537.81;;;21.65;36.43
4745;BME280;2386;42.138;24.746;2022-09-21T10:26:13;99561.66;;;21.88;36.56
4745;BME280;2386;42.138;24.746;2022-09-21T10:32:28;99552.13;;;21.81;35.02
4745;BME280;2386;42.138;24.746;2022-09-21T10:35:12;99549.41;;;22.08;35.79
4745;BME280;2386;42.138;24.746;2022-09-21T10:37:43;99527.91;;;22.05;35.63
4745;BME280;2386;42.138;24.746;2022-09-21T10:42:47;99534.66;;;22.49;34.95
4745;BME280;2386;42.138;24.746;2022-09-21T10:45:21;99538.25;;;22.49;34.80
4745;BME280;2386;42.138;24.746;2022-09-21T10:48:13;99531.09;;;22.12;34.22
4745;BME280;2386;42.138;24.746;2022-09-21T10:50:42;99523.09;;;22.24;35.40
4745;BME280;2386;42.138;24.746;2022-09-21T10:58:18;99528.00;;;22.00;34.54
4745;BME280;2386;42.138;24.746;2022-09-21T11:00:49;99539.59;;;22.02;35.43
4745;BME280;2386;42.138;24.746;2022-09-21T11:06:30;99531.16;;;21.80;35.06
4745;BME280;2386;42.138;24.746;2022-09-21T11:09:10;99534.34;;;22.01;36.35
4745;BME280;2386;42.138;24.746;2022-09-21T11:19:48;99529.94;;;22.27;34.76
4745;BME280;2386;42.138;24.746;2022-09-21T11:22:35;99528.75;;;22.06;34.68
4745;BME280;2386;42.138;24.746;2022-09-21T11:25:18;99533.41;;;21.91;35.12
4745;BME280;2386;42.138;24.746;2022-09-21T11:27:53;99529.03;;;21.90;35.28
4745;BME280;2386;42.138;24.746;2022-09-21T11:30:21;99516.03;;;21.77;36.04
4745;BME280;2386;42.138;24.746;2022-09-21T11:57:07;99497.09;;;22.48;35.72
4745;BME280;2386;42.138;24.746;2022-09-21T12:19:18;99498.69;;;22.62;32.90
4745;BME280;2386;42.138;24.746;2022-09-21T12:21:51;99504.50;;;22.39;33.78
4745;BME280;2386;42.138;24.746;2022-09-21T12:24:21;99500.97;;;21.97;34.59
4745;BME280;2386;42.138;24.746;2022-09-21T12:26:53;99496.38;;;21.92;34.02
4745;BME280;2386;42.138;24.746;2022-09-21T12:29:47;99493.31;;;21.80;34.45
4745;BME280;2386;42.138;24.746;2022-09-21T12:32:22;99499.47;;;21.91;34.45
4745;BME280;2386;42.138;24.746;2022-09-21T12:35:12;99489.03;;;21.88;33.99
4745;BME280;2386;42.138;24.746;2022-09-21T12:37:51;99490.38;;;21.77;34.43
4745;BME280;2386;42.138;24.746;2022-09-21T12:40:48;99485.75;;;22.00;36.12
4745;BME280;2386;42.138;24.746;2022-09-21T12:46:11;99491.28;;;22.36;35.69
4745;BME280;2386;42.138;24.746;2022-09-21T12:48:39;99486.84;;;22.48;36.47
4745;BME280;2386;42.138;24.746;2022-09-21T12:53:52;99490.09;;;22.86;34.73
4745;BME280;2386;42.138;24.746;2022-09-21T12:56:46;99496.59;;;23.75;32.86
4745;BME280;2386;42.138;24.746;2022-09-21T13:02:52;99481.31;;;27.41;28.74
4745;BME280;2386;42.138;24.746;2022-09-21T13:13:00;99492.34;;;31.06;25.45
4745;BME280;2386;42.138;24.746;2022-09-21T13:15:30;99485.69;;;31.79;23.03
4745;BME280;2386;42.138;24.746;2022-09-21T13:18:04;99489.19;;;31.08;23.56
4745;BME280;2386;42.138;24.746;2022-09-21T13:20:36;99482.13;;;30.94;23.95
4745;BME280;2386;42.138;24.746;2022-09-21T13:26:42;99490.66;;;32.42;22.90
4745;BME280;2386;42.138;24.746;2022-09-21T13:44:47;99470.06;;;28.10;27.74
4745;BME280;2386;42.138;24.746;2022-09-21T13:47:12;99466.56;;;27.40;28.24
4745;BME280;2386;42.138;24.746;2022-09-21T13:52:45;99470.25;;;26.33;29.50
4745;BME280;2386;42.138;24.746;2022-09-21T13:55:38;99463.34;;;25.21;30.21
4745;BME280;2386;42.138;24.746;2022-09-21T13:58:28;99458.47;;;24.93;31.17
4745;BME280;2386;42.138;24.746;2022-09-21T14:01:00;99460.78;;;24.73;32.55
4745;BME280;2386;42.138;24.746;2022-09-21T14:03:38;99466.34;;;24.56;32.07
4745;BME280;2386;42.138;24.746;2022-09-21T14:06:08;99471.28;;;24.42;32.57
4745;BME280;2386;42.138;24.746;2022-09-21T14:08:59;99461.44;;;24.18;32.39
4745;BME280;2386;42.138;24.746;2022-09-21T14:14:17;99464.47;;;23.74;33.29
4745;BME280;2386;42.138;24.746;2022-09-21T14:16:52;99470.47;;;23.58;33.29
4745;BME280;2386;42.138;24.746;2022-09-21T14:24:40;99465.50;;;22.62;34.25
4745;BME280;2386;42.138;24.746;2022-09-21T14:27:45;99467.25;;;22.58;34.47
4745;BME280;2386;42.138;24.746;2022-09-21T14:30:24;99482.50;;;22.34;33.64
4745;BME280;2386;42.138;24.746;2022-09-21T14:35:40;99476.13;;;22.11;34.50
4745;BME280;2386;42.138;24.746;2022-09-21T14:38:14;99463.34;;;22.01;34.80
4745;BME280;2386;42.138;24.746;2022-09-21T14:40:48;99477.34;;;21.91;34.43
4745;BME280;2386;42.138;24.746;2022-09-21T14:43:22;99482.28;;;21.67;35.56
4745;BME280;2386;42.138;24.746;2022-09-21T14:54:55;99482.88;;;20.90;37.96
4745;BME280;2386;42.138;24.746;2022-09-21T15:00:17;99478.44;;;20.61;39.08
4745;BME280;2386;42.138;24.746;2022-09-21T15:05:49;99492.72;;;20.63;39.32
4745;BME280;2386;42.138;24.746;2022-09-21T15:11:55;99512.16;;;20.34;39.66
4745;BME280;2386;42.138;24.746;2022-09-21T15:14:33;99493.25;;;20.28;40.28
4745;BME280;2386;42.138;24.746;2022-09-21T15:17:25;99513.13;;;20.25;40.34
4745;BME280;2386;42.138;24.746;2022-09-21T15:20:13;99512.69;;;20.37;40.26
4745;BME280;2386;42.138;24.746;2022-09-21T15:22:43;99523.06;;;20.45;40.71
4745;BME280;2386;42.138;24.746;2022-09-21T15:25:12;99515.44;;;20.37;39.68
4745;BME280;2386;42.138;24.746;2022-09-21T15:27:41;99513.94;;;20.25;39.81
4745;BME280;2386;42.138;24.746;2022-09-21T15:30:19;99531.41;;;20.16;39.82
4745;BME280;2386;42.138;24.746;2022-09-21T15:32:46;99535.81;;;19.98;40.23
4745;BME280;2386;42.138;24.746;2022-09-21T15:37:46;99540.72;;;20.01;39.78
4745;BME280;2386;42.138;24.746;2022-09-21T15:40:18;99537.63;;;19.84;40.46
4745;BME280;2386;42.138;24.746;2022-09-21T15:43:02;99533.47;;;19.86;40.93
4745;BME280;2386;42.138;24.746;2022-09-21T15:46:08;99538.97;;;19.86;40.08
4745;BME280;2386;42.138;24.746;2022-09-21T15:48:40;99536.59;;;19.80;40.28
4745;BME280;2386;42.138;24.746;2022-09-21T15:51:27;99537.75;;;19.74;40.74
4745;BME280;2386;42.138;24.746;2022-09-21T15:53:57;99545.06;;;19.59;40.09
4745;BME280;2386;42.138;24.746;2022-09-21T15:56:31;99539.50;;;19.64;40.63
4745;BME280;2386;42.138;24.746;2022-09-21T15:59:16;99538.22;;;19.57;40.59
4745;BME280;2386;42.138;24.746;2022-09-21T16:01:53;99553.84;;;19.61;41.08
4745;BME280;2386;42.138;24.746;2022-09-21T16:04:23;99564.28;;;19.64;42.63
4745;BME280;2386;42.138;24.746;2022-09-21T16:07:06;99564.28;;;19.64;42.60
4745;BME280;2386;42.138;24.746;2022-09-21T16:09:39;99560.41;;;19.65;43.21
4745;BME280;2386;42.138;24.746;2022-09-21T16:15:24;99561.47;;;19.69;41.86
4745;BME280;2386;42.138;24.746;2022-09-21T16:18:27;99554.03;;;19.41;42.89
4745;BME280;2386;42.138;24.746;2022-09-21T16:21:07;99557.56;;;19.47;42.92
4745;BME280;2386;42.138;24.746;2022-09-21T16:23:34;99552.34;;;19.45;43.46
4745;BME280;2386;42.138;24.746;2022-09-21T16:26:04;99552.63;;;19.44;43.53
4745;BME280;2386;42.138;24.746;2022-09-21T16:28:38;99567.09;;;19.59;43.87
4745;BME280;2386;42.138;24.746;2022-09-21T16:31:31;99562.91;;;19.33;43.48
4745;BME280;2386;42.138;24.746;2022-09-21T16:34:02;99547.00;;;19.30;44.14
4745;BME280;2386;42.138;24.746;2022-09-21T16:36:33;99561.34;;;19.27;44.61
4745;BME280;2386;42.138;24.746;2022-09-21T16:39:00;99556.47;;;19.19;44.36
4745;BME280;2386;42.138;24.746;2022-09-21T16:41:36;99563.94;;;19.13;44.22
4745;BME280;2386;42.138;24.746;2022-09-21T16:44:07;99557.06;;;19.16;44.18
4745;BME280;2386;42.138;24.746;2022-09-21T16:46:33;99569.03;;;19.30;45.01
4745;BME280;2386;42.138;24.746;2022-09-21T16:48:59;99564.44;;;19.20;44.44
4745;BME280;2386;42.138;24.746;2022-09-21T16:51:26;99580.34;;;19.23;44.93
4745;BME280;2386;42.138;24.746;2022-09-21T16:53:52;99576.63;;;19.09;44.90
4745;BME280;2386;42.138;24.746;2022-09-21T16:56:18;99579.13;;;19.06;44.97
4745;BME280;2386;42.138;24.746;2022-09-21T16:58:58;99583.94;;;18.90;45.60
4745;BME280;2386;42.138;24.746;2022-09-21T17:01:24;99601.66;;;18.68;45.35
4745;BME280;2386;42.138;24.746;2022-09-21T17:03:50;99610.94;;;18.78;45.32
4745;BME280;2386;42.138;24.746;2022-09-21T17:06:18;99611.69;;;18.88;45.59
4745;BME280;2386;42.138;24.746;2022-09-21T17:08:46;99620.16;;;18.97;50.61
4745;BME280;2386;42.138;24.746;2022-09-21T17:11:16;99627.81;;;18.61;54.05
4745;BME280;2386;42.138;24.746;2022-09-21T17:13:53;99617.75;;;18.41;56.47
4745;BME280;2386;42.138;24.746;2022-09-21T17:16:23;99622.94;;;18.48;57.98
4745;BME280;2386;42.138;24.746;2022-09-21T17:18:49;99625.22;;;18.25;59.30
4745;BME280;2386;42.138;24.746;2022-09-21T17:21:15;99631.44;;;18.51;58.47
4745;BME280;2386;42.138;24.746;2022-09-21T17:23:41;99636.91;;;18.56;58.39
4745;BME280;2386;42.138;24.746;2022-09-21T17:26:14;99636.63;;;18.53;57.46
4745;BME280;2386;42.138;24.746;2022-09-21T17:28:43;99636.69;;;18.43;58.52
4745;BME280;2386;42.138;24.746;2022-09-21T17:31:11;99636.19;;;18.30;59.24
4745;BME280;2386;42.138;24.746;2022-09-21T17:33:38;99642.22;;;18.32;58.79
4745;BME280;2386;42.138;24.746;2022-09-21T17:36:03;99650.22;;;18.24;60.80
4745;BME280;2386;42.138;24.746;2022-09-21T17:38:32;99657.34;;;18.25;60.46
4745;BME280;2386;42.138;24.746;2022-09-21T17:41:01;99649.72;;;18.12;61.78